createdAt,value
2019-02-06T00:00:45.873Z,16.13
2019-02-06T00:03:20.774Z,14.53
2019-02-06T00:05:50.670Z,16.63
2019-02-06T00:08:20.589Z,15.63
2019-02-06T00:10:50.513Z,17.03
2019-02-06T00:13:20.331Z,15.40
2019-02-06T00:15:50.244Z,11.10
2019-02-06T00:18:20.209Z,15.17
2019-02-06T00:20:49.991Z,15.57
2019-02-06T00:23:19.817Z,13.03
2019-02-06T00:25:49.635Z,10.73
2019-02-06T00:28:19.465Z,14.63
2019-02-06T00:30:49.509Z,15.37
2019-02-06T00:33:19.321Z,13.17
2019-02-06T00:35:49.077Z,12.33
2019-02-06T00:38:18.991Z,12.67
2019-02-06T00:40:49.042Z,12.20
2019-02-06T00:43:18.967Z,13.97
2019-02-06T00:45:48.990Z,11.30
2019-02-06T00:48:18.745Z,12.27
2019-02-06T00:54:54.461Z,11.10
2019-02-06T00:57:24.310Z,12.20
2019-02-06T00:59:54.161Z,9.73
2019-02-06T01:02:23.983Z,10.53
2019-02-06T01:04:54.009Z,9.47
2019-02-06T01:07:23.773Z,9.83
2019-02-06T01:09:53.845Z,11.83
2019-02-06T01:12:23.584Z,8.30
2019-02-06T01:14:53.523Z,9.30
2019-02-06T01:17:25.864Z,9.07
2019-02-06T01:19:54.697Z,10.27
2019-02-06T01:22:24.457Z,9.67
2019-02-06T01:24:54.416Z,8.57
2019-02-06T01:27:24.229Z,8.60
2019-02-06T01:29:54.108Z,7.07
2019-02-06T01:32:24.024Z,8.23
2019-02-06T01:34:53.994Z,8.67
2019-02-06T01:40:56.437Z,6.30
2019-02-06T01:43:26.241Z,8.90
2019-02-06T01:45:56.058Z,6.43
2019-02-06T01:48:25.842Z,8.27
2019-02-06T01:55:05.060Z,6.87
2019-02-06T01:57:34.825Z,6.50
2019-02-06T02:00:13.149Z,7.73
2019-02-06T02:02:43.040Z,7.47
2019-02-06T02:05:15.134Z,8.73
2019-02-06T02:11:26.364Z,7.53
2019-02-06T02:13:56.200Z,5.60
2019-02-06T02:16:25.919Z,7.27
2019-02-06T02:18:55.740Z,6.40
2019-02-06T02:21:25.830Z,6.80
2019-02-06T02:23:55.602Z,7.23
2019-02-06T02:26:25.497Z,6.07
2019-02-06T02:28:55.380Z,6.57
2019-02-06T02:31:25.280Z,5.33
2019-02-06T02:33:55.390Z,7.13
2019-02-06T02:43:57.182Z,6.03
2019-02-06T02:46:27.004Z,7.07
2019-02-06T02:48:57.264Z,5.93
2019-02-06T02:51:27.050Z,6.20
2019-02-06T02:53:57.135Z,6.63
2019-02-06T02:56:26.961Z,5.97
2019-02-06T02:58:56.797Z,6.30
2019-02-06T03:01:36.543Z,6.70
2019-02-06T03:04:10.597Z,6.27
2019-02-06T03:06:43.460Z,7.10
2019-02-06T03:09:13.548Z,6.47
2019-02-06T03:11:43.294Z,6.73
2019-02-06T03:14:13.450Z,7.77
2019-02-06T03:16:43.227Z,5.17
2019-02-06T03:19:13.117Z,6.90
2019-02-06T03:25:24.258Z,7.43
2019-02-06T03:27:54.152Z,6.47
2019-02-06T03:30:24.032Z,7.53
2019-02-06T03:32:53.869Z,6.57
2019-02-06T03:35:23.755Z,7.53
2019-02-06T03:37:53.627Z,7.87
2019-02-06T03:40:23.513Z,7.03
2019-02-06T03:42:53.270Z,6.83
2019-02-06T03:45:23.015Z,8.33
2019-02-06T03:47:52.845Z,7.40
2019-02-06T03:50:22.754Z,8.33
2019-02-06T03:56:24.918Z,6.57
2019-02-06T03:58:54.615Z,7.80
2019-02-06T04:01:24.489Z,10.37
2019-02-06T04:03:54.284Z,8.57
2019-02-06T04:12:50.967Z,5.90
2019-02-06T04:15:20.818Z,6.47
2019-02-06T04:17:54.234Z,6.77
2019-02-06T04:20:22.177Z,7.03
2019-02-06T04:22:51.933Z,7.47
2019-02-06T04:25:21.852Z,7.80
2019-02-06T04:27:52.380Z,7.77
2019-02-06T04:30:22.313Z,7.53
2019-02-06T04:32:52.235Z,5.43
2019-02-06T04:35:22.497Z,8.07
2019-02-06T04:37:52.457Z,7.57
2019-02-06T04:40:22.422Z,6.07
2019-02-06T04:42:52.410Z,8.07
2019-02-06T04:45:22.470Z,8.10
2019-02-06T04:47:52.282Z,7.60
2019-02-06T04:50:22.119Z,7.37
2019-02-06T04:52:52.030Z,6.93
2019-02-06T04:55:21.929Z,7.33
2019-02-06T04:57:52.335Z,7.43
2019-02-06T05:00:24.075Z,8.00
2019-02-06T05:02:53.894Z,5.97
2019-02-06T05:05:23.911Z,6.17
2019-02-06T05:12:05.454Z,6.80
2019-02-06T05:14:35.316Z,7.57
2019-02-06T05:17:05.232Z,7.57
2019-02-06T05:19:35.088Z,8.10
2019-02-06T05:22:04.999Z,7.97
2019-02-06T05:24:34.900Z,7.67
2019-02-06T05:27:04.852Z,7.43
2019-02-06T05:29:34.657Z,7.80
2019-02-06T05:32:04.491Z,6.23
2019-02-06T05:34:34.356Z,6.37
2019-02-06T05:37:04.205Z,8.50
2019-02-06T05:39:33.981Z,7.10
2019-02-06T05:42:03.969Z,8.07
2019-02-06T05:44:33.835Z,8.10
2019-02-06T05:47:03.745Z,7.17
2019-02-06T05:49:35.739Z,7.60
2019-02-06T05:52:06.517Z,7.30
2019-02-06T05:54:39.179Z,7.27
2019-02-06T05:57:09.096Z,7.07
2019-02-06T05:59:39.080Z,7.40
2019-02-06T06:02:08.899Z,7.13
2019-02-06T06:04:38.801Z,6.97
2019-02-06T06:07:08.733Z,7.27
2019-02-06T06:09:38.682Z,7.07
2019-02-06T06:12:08.713Z,9.40
2019-02-06T06:14:38.782Z,6.20
2019-02-06T06:17:08.700Z,6.77
2019-02-06T06:19:38.650Z,7.63
2019-02-06T06:22:08.557Z,6.07
2019-02-06T06:24:38.595Z,8.20
2019-02-06T06:27:08.481Z,7.33
2019-02-06T06:29:38.719Z,6.50
2019-02-06T06:32:08.628Z,7.23
2019-02-06T06:34:38.569Z,7.87
2019-02-06T06:37:08.472Z,7.43
2019-02-06T06:39:38.444Z,6.63
2019-02-06T06:42:08.538Z,7.40
2019-02-06T06:44:38.525Z,6.83
2019-02-06T06:47:08.664Z,7.33
2019-02-06T06:49:40.190Z,7.93
2019-02-06T06:52:10.109Z,6.67
2019-02-06T06:54:39.979Z,8.30
2019-02-06T06:57:12.359Z,8.40
2019-02-06T06:59:41.422Z,7.40
2019-02-06T07:02:11.311Z,7.50
2019-02-06T07:04:41.285Z,8.50
2019-02-06T07:07:11.305Z,7.83
2019-02-06T07:09:41.091Z,7.60
2019-02-06T07:12:11.033Z,7.47
2019-02-06T07:14:40.963Z,6.23
2019-02-06T07:17:11.003Z,8.30
2019-02-06T07:19:40.822Z,7.53
2019-02-06T07:22:10.728Z,8.07
2019-02-06T07:24:40.714Z,6.77
2019-02-06T07:27:10.596Z,8.20
2019-02-06T07:29:40.472Z,6.90
2019-02-06T07:32:10.368Z,8.43
2019-02-06T07:34:40.270Z,8.00
2019-02-06T07:37:10.052Z,7.67
2019-02-06T07:39:39.898Z,7.70
2019-02-06T07:42:09.850Z,7.60
2019-02-06T07:44:39.697Z,8.47
2019-02-06T07:47:09.676Z,7.83
2019-02-06T07:49:39.615Z,7.90
2019-02-06T07:52:09.603Z,7.70
2019-02-06T07:54:39.514Z,7.07
2019-02-06T07:57:09.437Z,8.20
2019-02-06T07:59:39.290Z,8.40
2019-02-06T08:02:09.590Z,7.90
2019-02-06T08:04:41.635Z,8.17
2019-02-06T08:07:12.779Z,8.67
2019-02-06T08:09:42.962Z,8.40
2019-02-06T08:12:12.934Z,7.37
2019-02-06T08:14:42.846Z,9.17
2019-02-06T08:17:13.584Z,8.23
2019-02-06T08:19:43.364Z,8.93
2019-02-06T08:22:13.300Z,8.40
2019-02-06T08:25:03.514Z,11.80
2019-02-06T08:27:33.758Z,9.20
2019-02-06T08:30:04.068Z,9.37
2019-02-06T08:32:33.998Z,9.57
2019-02-06T08:35:04.020Z,8.83
2019-02-06T08:37:33.793Z,7.37
2019-02-06T08:40:03.993Z,7.53
2019-02-06T08:42:33.987Z,9.00
2019-02-06T08:45:04.720Z,9.40
2019-02-06T08:47:34.631Z,9.07
2019-02-06T08:50:06.951Z,8.23
2019-02-06T08:56:18.289Z,8.57
2019-02-06T08:58:48.579Z,9.57
2019-02-06T09:01:18.292Z,8.63
2019-02-06T09:03:48.181Z,9.30
2019-02-06T09:06:17.945Z,11.13
2019-02-06T09:08:59.009Z,10.10
2019-02-06T09:11:19.323Z,9.90
2019-02-06T09:13:49.124Z,9.40
2019-02-06T09:16:18.923Z,9.80
2019-02-06T09:18:48.749Z,10.70
2019-02-06T09:21:18.580Z,9.27
2019-02-06T09:23:48.509Z,10.80
2019-02-06T09:26:18.415Z,11.40
2019-02-06T09:28:48.306Z,10.20
2019-02-06T09:31:18.124Z,9.67
2019-02-06T09:33:47.984Z,10.10
2019-02-06T09:36:17.920Z,9.10
2019-02-06T09:38:47.867Z,9.80
2019-02-06T09:41:17.867Z,9.20
2019-02-06T09:43:47.802Z,9.13
2019-02-06T09:46:17.789Z,10.80
2019-02-06T09:48:48.124Z,12.20
2019-02-06T09:51:19.334Z,10.10
2019-02-06T09:53:49.729Z,8.57
2019-02-06T09:56:19.779Z,9.80
2019-02-06T09:58:49.829Z,10.03
2019-02-06T10:01:21.490Z,9.60
2019-02-06T10:03:51.355Z,9.73
2019-02-06T10:06:21.454Z,11.40
2019-02-06T10:08:51.452Z,10.50
2019-02-06T10:11:21.289Z,11.33
2019-02-06T10:13:51.046Z,11.37
2019-02-06T10:16:21.068Z,11.10
2019-02-06T10:18:50.958Z,10.47
2019-02-06T10:21:20.768Z,10.50
2019-02-06T10:23:50.676Z,10.30
2019-02-06T10:26:20.509Z,10.63
2019-02-06T10:28:50.358Z,10.83
2019-02-06T10:31:20.400Z,9.17
2019-02-06T10:33:50.420Z,10.00
2019-02-06T10:36:20.417Z,8.97
2019-02-06T10:38:50.396Z,8.77
2019-02-06T10:41:20.354Z,10.63
2019-02-06T10:43:51.160Z,9.97
2019-02-06T10:46:21.140Z,8.70
2019-02-06T10:49:17.940Z,22.63
2019-02-06T10:58:27.754Z,9.87
2019-02-06T11:01:02.872Z,10.03
2019-02-06T11:03:32.807Z,8.97
2019-02-06T11:06:03.315Z,10.57
2019-02-06T11:08:40.068Z,11.90
2019-02-06T11:11:10.073Z,11.03
2019-02-06T11:13:39.984Z,11.13
2019-02-06T11:16:09.899Z,10.17
2019-02-06T11:18:39.658Z,11.00
2019-02-06T11:21:09.661Z,11.47
2019-02-06T11:23:39.653Z,12.07
2019-02-06T11:26:10.052Z,11.33
2019-02-06T11:28:39.989Z,12.80
2019-02-06T11:31:09.918Z,12.47
2019-02-06T11:33:39.799Z,11.37
2019-02-06T11:36:09.983Z,13.20
2019-02-06T11:38:39.878Z,11.63
2019-02-06T11:41:09.709Z,13.33
2019-02-06T11:43:39.507Z,10.43
2019-02-06T11:46:09.679Z,10.87
2019-02-06T11:48:39.658Z,11.40
2019-02-06T11:51:09.699Z,11.83
2019-02-06T11:53:41.163Z,12.13
2019-02-06T11:56:11.453Z,10.77
2019-02-06T11:58:41.246Z,10.93
2019-02-06T12:01:24.879Z,8.83
2019-02-06T12:03:55.439Z,10.07
2019-02-06T12:06:25.444Z,10.33
2019-02-06T12:08:55.310Z,12.03
2019-02-06T12:11:29.845Z,11.03
2019-02-06T12:14:18.207Z,9.57
2019-02-06T12:16:48.195Z,11.27
2019-02-06T12:19:18.085Z,10.67
2019-02-06T12:28:54.999Z,8.87
2019-02-06T12:31:24.784Z,9.57
2019-02-06T12:33:55.027Z,13.20
2019-02-06T12:36:24.893Z,11.10
2019-02-06T12:42:35.674Z,13.80
2019-02-06T12:45:06.169Z,15.30
2019-02-06T12:47:36.058Z,17.17
2019-02-06T12:50:07.236Z,16.37
2019-02-06T12:52:37.141Z,17.37
2019-02-06T12:55:09.961Z,17.37
2019-02-06T12:57:39.849Z,11.97
2019-02-06T13:00:17.658Z,13.87
2019-02-06T13:02:47.550Z,14.80
2019-02-06T13:05:17.345Z,16.60
2019-02-06T13:07:47.206Z,13.33
2019-02-06T13:10:17.640Z,11.37
2019-02-06T13:12:47.652Z,15.50
2019-02-06T13:15:17.762Z,16.00
2019-02-06T13:17:47.593Z,17.50
2019-02-06T13:20:23.574Z,17.97
2019-02-06T13:22:59.706Z,15.40
2019-02-06T13:25:29.488Z,15.07
2019-02-06T13:27:59.769Z,15.00
2019-02-06T13:30:32.089Z,12.83
2019-02-06T13:33:01.946Z,12.87
2019-02-06T13:35:31.809Z,10.73
2019-02-06T13:45:09.433Z,10.67
2019-02-06T13:47:52.812Z,11.00
2019-02-06T13:50:39.779Z,13.10
2019-02-06T13:53:07.345Z,11.70
2019-02-06T13:55:37.172Z,10.23
2019-02-06T13:58:19.694Z,11.60
2019-02-06T14:00:42.632Z,11.17
2019-02-06T14:03:12.452Z,9.17
2019-02-06T14:05:46.644Z,12.33
2019-02-06T14:11:56.923Z,11.43
2019-02-06T14:14:27.138Z,13.73
2019-02-06T14:17:02.257Z,10.73
2019-02-06T14:19:32.041Z,11.53
2019-02-06T14:22:01.837Z,11.37
2019-02-06T14:25:14.223Z,13.30
2019-02-06T14:28:24.846Z,11.87
2019-02-06T14:31:32.499Z,9.53
2019-02-06T14:34:58.663Z,12.20
2019-02-06T14:38:15.325Z,9.43
2019-02-06T14:41:16.581Z,13.27
2019-02-06T14:44:20.314Z,11.47
2019-02-06T14:47:01.497Z,10.83
2019-02-06T14:49:44.497Z,11.23
2019-02-06T14:56:59.045Z,11.37
2019-02-06T15:00:26.692Z,11.63
2019-02-06T15:03:33.574Z,9.20
2019-02-06T15:06:30.289Z,12.63
2019-02-06T15:09:46.112Z,11.10
2019-02-06T15:12:57.660Z,11.23
2019-02-06T15:16:17.250Z,9.53
2019-02-06T15:19:09.736Z,8.90
2019-02-06T15:22:23.476Z,10.60
2019-02-06T15:25:20.833Z,10.23
2019-02-06T15:28:36.154Z,10.77
2019-02-06T15:31:30.934Z,10.43
2019-02-06T15:34:47.558Z,9.53
2019-02-06T15:45:02.783Z,8.87
2019-02-06T15:48:19.073Z,10.30
2019-02-06T15:51:19.714Z,9.60
2019-02-06T15:57:58.154Z,12.33
2019-02-06T16:00:46.023Z,10.97
2019-02-06T16:03:54.164Z,10.53
2019-02-06T16:07:11.392Z,11.00
2019-02-06T16:10:19.439Z,10.03
2019-02-06T16:13:15.274Z,13.13
2019-02-06T16:16:23.789Z,10.30
2019-02-06T16:19:27.199Z,11.50
2019-02-06T16:30:02.208Z,14.23
2019-02-06T16:33:08.346Z,15.90
2019-02-06T16:36:03.340Z,21.23
2019-02-06T16:43:09.550Z,17.97
2019-02-06T16:46:16.630Z,17.00
2019-02-06T16:49:05.125Z,15.77
2019-02-06T16:52:07.367Z,15.40
2019-02-06T16:58:59.261Z,14.30
2019-02-06T17:02:06.359Z,12.70
2019-02-06T17:05:12.721Z,15.93
2019-02-06T17:08:32.479Z,14.17
2019-02-06T17:11:17.561Z,12.90
2019-02-06T17:14:20.034Z,18.77
2019-02-06T17:17:23.725Z,14.77
2019-02-06T17:20:33.583Z,16.07
2019-02-06T17:27:17.167Z,14.37
2019-02-06T17:30:18.433Z,16.57
2019-02-06T17:33:32.721Z,16.60
2019-02-06T17:36:40.821Z,16.87
2019-02-06T17:43:08.343Z,13.83
2019-02-06T17:46:16.533Z,15.07
2019-02-06T17:49:42.193Z,16.33
2019-02-06T17:52:52.359Z,14.27
2019-02-06T17:55:27.444Z,22.20
2019-02-06T17:57:59.637Z,15.67
2019-02-06T18:00:37.967Z,13.20
2019-02-06T18:03:10.242Z,16.10
2019-02-06T18:05:40.444Z,14.17
2019-02-06T18:12:26.281Z,18.87
2019-02-06T18:15:16.592Z,30.00
2019-02-06T18:17:46.434Z,12.20
2019-02-06T18:20:16.579Z,15.33
2019-02-06T18:22:46.429Z,15.07
2019-02-06T18:25:16.591Z,16.33
2019-02-06T18:27:47.251Z,9.60
2019-02-06T18:30:19.381Z,11.67
2019-02-06T18:32:49.331Z,11.10
2019-02-06T18:35:19.144Z,15.17
2019-02-06T18:37:50.850Z,12.73
2019-02-06T18:47:28.916Z,13.30
2019-02-06T18:49:58.866Z,14.17
2019-02-06T18:52:28.790Z,12.60
2019-02-06T19:02:03.930Z,13.03
2019-02-06T19:04:33.960Z,13.60
2019-02-06T19:07:03.940Z,12.23
2019-02-06T19:09:33.774Z,13.43
2019-02-06T19:12:04.447Z,12.13
2019-02-06T19:14:34.356Z,13.63
2019-02-06T19:17:04.171Z,12.80
2019-02-06T19:19:33.937Z,13.63
2019-02-06T19:22:04.080Z,11.27
2019-02-06T19:24:34.131Z,12.43
2019-02-06T19:27:04.127Z,9.90
2019-02-06T19:29:34.004Z,12.20
2019-02-06T19:32:03.835Z,13.37
2019-02-06T19:34:33.793Z,13.23
2019-02-06T19:37:03.825Z,14.10
2019-02-06T19:39:36.485Z,12.97
2019-02-06T19:42:06.299Z,15.47
2019-02-06T19:44:36.099Z,14.20
2019-02-06T19:47:06.327Z,14.57
2019-02-06T19:49:37.682Z,13.53
2019-02-06T19:52:07.570Z,12.30
2019-02-06T19:54:37.446Z,15.37
2019-02-06T19:57:07.225Z,14.30
2019-02-06T19:59:37.192Z,14.73
2019-02-06T20:02:07.251Z,16.30
2019-02-06T20:04:37.017Z,15.20
2019-02-06T20:07:06.950Z,12.97
2019-02-06T20:13:13.814Z,16.03
2019-02-06T20:15:40.847Z,16.53
2019-02-06T20:18:11.379Z,18.20
2019-02-06T20:20:41.346Z,14.13
2019-02-06T20:23:11.434Z,13.27
2019-02-06T20:25:41.310Z,13.50
2019-02-06T20:28:11.242Z,17.37
2019-02-06T20:30:41.064Z,15.27
2019-02-06T20:33:10.959Z,12.77
2019-02-06T20:35:40.874Z,13.90
2019-02-06T20:38:10.722Z,14.53
2019-02-06T20:40:40.634Z,14.93
2019-02-06T20:43:21.446Z,14.20
2019-02-06T20:45:41.936Z,14.03
2019-02-06T20:48:11.684Z,14.30
2019-02-06T20:50:41.668Z,12.53
2019-02-06T20:53:11.471Z,10.47
2019-02-06T20:55:41.381Z,13.73
2019-02-06T20:58:11.381Z,12.77
2019-02-06T21:00:41.456Z,11.97
2019-02-06T21:03:11.333Z,9.03
2019-02-06T21:05:41.366Z,15.30
2019-02-06T21:08:11.262Z,15.77
2019-02-06T21:10:41.186Z,12.27
2019-02-06T21:13:11.292Z,11.60
2019-02-06T21:15:41.220Z,15.43
2019-02-06T21:18:11.190Z,14.13
2019-02-06T21:20:41.340Z,13.33
2019-02-06T21:23:11.110Z,14.67
2019-02-06T21:25:40.964Z,14.77
2019-02-06T21:28:10.821Z,12.40
2019-02-06T21:30:40.744Z,13.77
2019-02-06T21:33:10.618Z,13.40
2019-02-06T21:35:40.522Z,12.60
2019-02-06T21:38:10.300Z,13.53
2019-02-06T21:44:21.514Z,14.00
2019-02-06T21:46:51.376Z,12.90
2019-02-06T21:49:21.171Z,15.80
2019-02-06T21:51:50.982Z,14.70
2019-02-06T21:54:20.859Z,13.17
2019-02-06T21:56:50.709Z,13.67
2019-02-06T21:59:20.517Z,13.00
2019-02-06T22:01:50.535Z,15.57
2019-02-06T22:04:20.509Z,13.23
2019-02-06T22:06:53.154Z,17.53
2019-02-06T22:09:23.033Z,11.53
2019-02-06T22:11:52.899Z,13.80
2019-02-06T22:14:23.073Z,15.50
2019-02-06T22:16:56.059Z,11.97
2019-02-06T22:19:26.183Z,11.63
2019-02-06T22:21:57.793Z,11.00
2019-02-06T22:24:27.641Z,10.90
2019-02-06T22:26:57.615Z,10.40
2019-02-06T22:29:30.605Z,12.73
2019-02-06T22:32:00.530Z,11.73
2019-02-06T22:34:30.342Z,12.33
2019-02-06T22:37:00.068Z,12.10
2019-02-06T22:39:30.026Z,9.80
2019-02-06T22:41:59.963Z,12.13
2019-02-06T22:44:29.904Z,9.03
2019-02-06T22:46:59.875Z,13.10
2019-02-06T22:49:43.270Z,11.73
2019-02-06T22:52:13.127Z,9.77
2019-02-06T22:54:42.981Z,12.37
2019-02-06T22:57:15.311Z,10.80
2019-02-06T22:59:45.291Z,7.70
2019-02-06T23:02:15.180Z,10.27
2019-02-06T23:04:44.972Z,10.90
2019-02-06T23:07:14.784Z,9.93
2019-02-06T23:09:44.652Z,8.67
2019-02-06T23:12:14.649Z,9.37
2019-02-06T23:14:44.464Z,11.07
2019-02-06T23:17:32.447Z,10.83
2019-02-06T23:20:02.359Z,9.60
2019-02-06T23:22:32.181Z,9.80
2019-02-06T23:25:01.919Z,10.53
2019-02-06T23:27:31.665Z,9.27
2019-02-06T23:30:01.722Z,11.33
2019-02-06T23:32:31.718Z,10.47
2019-02-06T23:35:01.757Z,8.60
2019-02-06T23:37:31.593Z,10.23
2019-02-06T23:43:34.266Z,8.80
2019-02-06T23:46:04.228Z,11.13
2019-02-06T23:48:34.045Z,12.40
2019-02-06T23:51:03.952Z,11.37
2019-02-06T23:53:33.770Z,11.53
2019-02-06T23:56:03.576Z,11.93
2019-02-06T23:58:33.490Z,12.20
